Time;durP1;ratioP1;P1;durP2;ratioP2;P2;SDS_P1;SDS_P2;PMS_P1;PMS_P2;Temp;Humidity;BMP_temperature;BMP_pressure;BME280_temperature;BME280_humidity;BME280_pressure;Samples;Min_cycle;Max_cycle;Signal;HPM_P1;HPM_P2
2023/02/04 00:02:21;;;;;;;1.40;1.30;;;;;;;6.13;100.00;96516.28;6064302;23;20200;-82
2023/02/04 00:04:49;;;;;;;1.40;1.30;;;;;;;6.12;100.00;96504.44;6065162;23;20216;-83
2023/02/04 00:07:17;;;;;;;1.40;1.30;;;;;;;6.20;100.00;96516.56;6065747;23;20169;-82
2023/02/04 00:09:45;;;;;;;1.50;1.40;;;;;;;6.24;100.00;96518.75;6066094;23;20360;-82
2023/02/04 00:12:12;;;;;;;1.30;1.20;;;;;;;6.28;100.00;96521.06;6065924;23;20207;-82
2023/02/04 00:14:38;;;;;;;1.33;1.23;;;;;;;6.28;100.00;96515.94;6065521;23;20213;-82
2023/02/04 00:17:09;;;;;;;1.50;1.40;;;;;;;6.19;100.00;96515.75;6050153;23;20205;-82
2023/02/04 00:19:35;;;;;;;1.60;1.23;;;;;;;6.22;100.00;96517.25;6064758;23;20268;-82
2023/02/04 00:22:03;;;;;;;1.70;1.30;;;;;;;6.18;100.00;96516.69;6065519;23;20267;-82
2023/02/04 00:24:30;;;;;;;1.47;1.20;;;;;;;6.26;100.00;96523.75;6064637;23;20213;-82
2023/02/04 00:26:56;;;;;;;1.40;1.30;;;;;;;6.30;100.00;96514.88;6065780;23;20655;-82
2023/02/04 00:29:23;;;;;;;1.50;1.40;;;;;;;6.27;100.00;96510.03;6064599;23;20209;-82
2023/02/04 00:31:49;;;;;;;1.63;1.20;;;;;;;6.27;100.00;96525.38;6064028;23;20315;-82
2023/02/04 00:34:17;;;;;;;1.33;1.23;;;;;;;6.31;100.00;96519.06;6049497;23;20216;-81
2023/02/04 00:36:43;;;;;;;1.30;1.20;;;;;;;6.20;100.00;96511.44;6065478;23;20517;-82
2023/02/04 00:39:11;;;;;;;2.07;1.63;;;;;;;6.13;100.00;96531.63;6064674;23;20747;-82
2023/02/04 00:41:37;;;;;;;1.33;1.23;;;;;;;6.23;100.00;96536.78;6065146;23;20739;-82
2023/02/04 00:44:04;;;;;;;1.40;1.30;;;;;;;6.22;100.00;96535.97;6065649;23;20201;-82
2023/02/04 00:46:30;;;;;;;2.23;1.40;;;;;;;6.18;100.00;96533.78;6066475;23;20181;-82
2023/02/04 00:48:57;;;;;;;2.03;1.37;;;;;;;6.12;100.00;96522.31;6065930;23;20243;-82
2023/02/04 00:51:23;;;;;;;2.10;1.40;;;;;;;6.16;100.00;96531.34;6066669;23;20192;-82
2023/02/04 00:53:50;;;;;;;1.63;1.50;;;;;;;6.11;100.00;96535.22;6064278;23;20205;-82
2023/02/04 00:56:17;;;;;;;1.40;1.20;;;;;;;6.15;100.00;96544.28;6065485;23;20188;-82
2023/02/04 00:58:44;;;;;;;1.40;1.30;;;;;;;6.19;100.00;96549.00;6065083;23;20267;-82
2023/02/04 01:01:10;;;;;;;1.40;1.30;;;;;;;6.27;100.00;96553.50;6005986;23;20216;-82
2023/02/04 01:03:37;;;;;;;1.40;1.30;;;;;;;6.30;100.00;96566.03;6059467;23;20211;-82
2023/02/04 01:06:03;;;;;;;1.97;1.30;;;;;;;6.33;100.00;96570.91;6065568;23;20185;-82
2023/02/04 01:08:30;;;;;;;1.37;1.27;;;;;;;6.22;100.00;96564.09;6065412;23;20205;-82
2023/02/04 01:10:56;;;;;;;1.00;1.00;;;;;;;6.20;100.00;96581.31;6049108;23;20212;-83
2023/02/04 01:13:24;;;;;;;1.40;1.30;;;;;;;6.18;100.00;96579.81;6064783;23;20219;-82
2023/02/04 01:15:50;;;;;;;1.67;1.50;;;;;;;6.18;100.00;96567.81;6065229;23;20181;-82
2023/02/04 01:18:17;;;;;;;1.17;1.07;;;;;;;6.16;100.00;96559.47;6064525;23;20216;-82
2023/02/04 01:20:43;;;;;;;1.47;1.20;;;;;;;6.16;100.00;96567.13;6066155;23;20644;-82
2023/02/04 01:23:09;;;;;;;1.37;1.27;;;;;;;6.21;100.00;96566.78;6067695;23;20219;-82
2023/02/04 01:25:36;;;;;;;1.13;1.03;;;;;;;6.15;100.00;96562.19;6067157;23;20188;-82
2023/02/04 01:28:02;;;;;;;1.10;1.00;;;;;;;6.18;100.00;96570.38;6067459;23;20549;-82
2023/02/04 01:30:30;;;;;;;1.73;1.00;;;;;;;6.17;100.00;96566.22;6066441;23;20196;-82
2023/02/04 01:32:57;;;;;;;1.17;1.07;;;;;;;6.19;100.00;96579.69;6065983;23;20201;-82
2023/02/04 01:35:23;;;;;;;1.37;1.00;;;;;;;6.19;100.00;96576.31;6037684;23;20204;-82
2023/02/04 01:37:51;;;;;;;1.37;1.10;;;;;;;6.30;100.00;96575.44;6066806;23;20199;-82
2023/02/04 01:40:18;;;;;;;1.03;0.90;;;;;;;6.37;100.00;96574.81;6065263;23;20677;-82
2023/02/04 01:42:44;;;;;;;0.90;0.90;;;;;;;6.33;100.00;96568.34;6065928;23;20521;-82
2023/02/04 01:45:11;;;;;;;0.97;0.90;;;;;;;6.30;100.00;96583.13;6067125;23;20649;-82
2023/02/04 01:47:40;;;;;;;1.37;1.00;;;;;;;6.34;100.00;96597.28;6066329;23;20177;-82
2023/02/04 01:50:07;;;;;;;1.17;0.90;;;;;;;6.36;100.00;96600.50;6050700;23;20208;-82
2023/02/04 01:52:39;;;;;;;1.63;0.90;;;;;;;6.44;100.00;96603.25;6066505;23;20715;-82
2023/02/04 01:55:13;;;;;;;1.13;1.03;;;;;;;6.43;100.00;96599.88;6066800;23;20513;-82
2023/02/04 01:57:39;;;;;;;2.43;1.20;;;;;;;6.45;100.00;96592.91;6067710;23;20208;-82
2023/02/04 02:00:13;;;;;;;1.93;0.90;;;;;;;6.49;100.00;96593.47;6066017;23;20189;-81
2023/02/04 02:02:45;;;;;;;1.73;1.00;;;;;;;6.42;100.00;96611.06;6067074;23;20207;-82
2023/02/04 02:05:14;;;;;;;2.50;1.17;;;;;;;6.48;100.00;96608.00;6066052;23;20172;-82
2023/02/04 02:07:41;;;;;;;1.10;1.00;;;;;;;6.49;100.00;96614.75;6065706;23;20185;-82
2023/02/04 02:10:10;;;;;;;3.47;1.30;;;;;;;6.56;100.00;96609.91;6066551;23;20184;-82
2023/02/04 02:12:37;;;;;;;2.47;1.20;;;;;;;6.60;100.00;96608.72;6066583;23;20533;-82
2023/02/04 02:15:04;;;;;;;1.83;1.20;;;;;;;6.65;100.00;96614.28;6065710;23;20732;-82
2023/02/04 02:17:32;;;;;;;3.40;1.50;;;;;;;6.66;100.00;96615.09;6067122;23;20184;-82
2023/02/04 02:20:00;;;;;;;3.67;1.40;;;;;;;6.61;100.00;96610.34;6065907;23;20381;-82
2023/02/04 02:22:32;;;;;;;2.03;1.50;;;;;;;6.63;100.00;96620.47;6066240;23;20200;-82
2023/02/04 02:24:59;;;;;;;3.60;1.70;;;;;;;6.64;100.00;96627.22;6066036;23;20205;-82
2023/02/04 02:27:26;;;;;;;5.03;1.90;;;;;;;6.63;100.00;96628.16;6066524;23;20517;-82
2023/02/04 02:29:52;;;;;;;3.83;1.90;;;;;;;6.65;100.00;96633.94;6065937;23;20212;-82
2023/02/04 02:32:22;;;;;;;5.53;1.93;;;;;;;6.68;100.00;96654.97;6066322;23;20205;-82
2023/02/04 02:34:48;;;;;;;3.53;1.90;;;;;;;6.71;100.00;96647.06;6066210;23;20548;-82
2023/02/04 02:37:15;;;;;;;5.63;2.10;;;;;;;6.75;100.00;96648.41;6051712;23;20212;-82
2023/02/04 02:39:44;;;;;;;3.87;1.70;;;;;;;6.76;100.00;96654.34;6066366;23;20213;-82
2023/02/04 02:42:15;;;;;;;3.93;1.80;;;;;;;6.76;100.00;96646.66;6049313;23;20217;-82
2023/02/04 02:44:42;;;;;;;4.67;2.03;;;;;;;6.68;100.00;96649.88;6066315;23;20212;-82
2023/02/04 02:47:13;;;;;;;8.63;2.60;;;;;;;6.67;100.00;96638.00;6066443;23;20176;-82
2023/02/04 02:49:40;;;;;;;5.97;1.90;;;;;;;6.71;100.00;96643.69;6065226;23;20697;-82
2023/02/04 02:52:10;;;;;;;6.73;2.70;;;;;;;6.73;99.53;96652.88;6050494;23;20781;-82
2023/02/04 02:54:37;;;;;;;7.27;2.63;;;;;;;6.66;99.46;96644.06;6065670;23;20259;-82
2023/02/04 02:57:10;;;;;;;7.63;2.47;;;;;;;6.70;99.29;96650.56;6066255;23;20228;-82
2023/02/04 02:59:38;;;;;;;12.77;2.50;;;;;;;6.68;98.50;96649.06;6066031;23;20227;-82
2023/02/04 03:02:05;;;;;;;4.73;2.40;;;;;;;6.69;97.92;96650.69;6066059;23;20208;-82
2023/02/04 03:04:35;;;;;;;7.27;2.60;;;;;;;6.65;98.07;96654.41;6065676;23;20284;-82
2023/02/04 03:07:02;;;;;;;5.70;2.27;;;;;;;6.56;98.08;96658.53;6072177;23;20169;-82
2023/02/04 03:09:29;;;;;;;6.50;2.87;;;;;;;6.60;97.29;96654.78;6072848;23;20216;-82
2023/02/04 03:11:56;;;;;;;10.17;2.50;;;;;;;6.57;97.21;96665.28;6072297;23;20204;-82
2023/02/04 03:14:24;;;;;;;7.67;2.77;;;;;;;6.51;96.78;96666.59;6072310;23;20215;-82
2023/02/04 03:16:52;;;;;;;8.17;2.83;;;;;;;6.47;96.54;96672.91;6073581;23;20188;-82
2023/02/04 03:19:19;;;;;;;9.17;2.33;;;;;;;6.47;96.17;96675.44;6072609;23;20469;-82
2023/02/04 03:21:46;;;;;;;10.53;2.70;;;;;;;6.45;96.06;96669.66;6072830;23;20237;-82
2023/02/04 03:24:12;;;;;;;9.57;2.93;;;;;;;6.36;96.00;96670.38;6071891;23;20201;-82
2023/02/04 03:26:39;;;;;;;8.87;2.83;;;;;;;6.37;95.65;96677.13;6072926;23;20181;-82
2023/02/04 03:29:06;;;;;;;8.47;2.97;;;;;;;6.37;95.59;96682.22;6055687;23;20239;-82
2023/02/04 03:31:33;;;;;;;9.87;2.80;;;;;;;6.37;95.28;96684.78;6049755;23;20214;-82
2023/02/04 03:34:01;;;;;;;6.33;3.07;;;;;;;6.38;95.41;96686.41;6068712;23;20328;-82
2023/02/04 03:36:27;;;;;;;8.03;2.73;;;;;;;6.36;95.87;96682.34;6070053;23;20183;-82
2023/02/04 03:38:54;;;;;;;6.77;3.00;;;;;;;6.38;95.88;96699.19;6068960;23;20215;-81
2023/02/04 03:41:20;;;;;;;8.43;2.87;;;;;;;6.37;95.83;96701.88;6068680;23;20226;-82
2023/02/04 03:43:47;;;;;;;8.87;2.70;;;;;;;6.36;95.47;96700.25;6069220;23;20216;-82
2023/02/04 03:46:13;;;;;;;9.40;2.83;;;;;;;6.29;95.20;96705.06;6070362;23;20184;-82
2023/02/04 03:48:39;;;;;;;6.33;2.37;;;;;;;6.34;94.97;96702.97;6068452;23;20216;-82
2023/02/04 03:51:07;;;;;;;8.70;3.03;;;;;;;6.30;95.36;96709.25;6069941;23;20185;-82
2023/02/04 03:53:34;;;;;;;7.63;2.47;;;;;;;6.28;94.90;96718.78;6068461;23;20217;-82
2023/02/04 03:56:00;;;;;;;10.10;2.80;;;;;;;6.18;94.62;96725.56;6068321;23;20200;-82
2023/02/04 03:58:26;;;;;;;6.47;2.70;;;;;;;6.12;93.70;96734.53;6068435;23;20212;-82
2023/02/04 04:00:53;;;;;;;6.53;2.50;;;;;;;6.09;93.66;96744.19;6069678;23;20181;-82
2023/02/04 04:03:19;;;;;;;8.20;2.53;;;;;;;5.98;94.33;96742.44;6067472;23;20204;-82
2023/02/04 04:05:46;;;;;;;8.37;2.63;;;;;;;6.00;93.99;96752.56;6069803;23;20183;-82
2023/02/04 04:08:13;;;;;;;7.47;2.80;;;;;;;6.02;93.62;96754.06;6068734;23;20672;-82
2023/02/04 04:10:40;;;;;;;13.33;2.80;;;;;;;6.07;93.20;96748.59;6068569;23;20177;-82
2023/02/04 04:13:06;;;;;;;10.47;3.10;;;;;;;6.10;93.26;96761.16;6068130;23;20216;-82
2023/02/04 04:15:33;;;;;;;11.87;3.30;;;;;;;6.07;93.34;96758.84;6068328;23;20200;-82
2023/02/04 04:17:59;;;;;;;8.30;2.93;;;;;;;6.02;92.69;96756.63;6068341;23;20184;-82
2023/02/04 04:20:26;;;;;;;10.07;3.30;;;;;;;5.93;92.99;96767.59;6069280;23;20184;-82
2023/02/04 04:22:53;;;;;;;7.30;3.20;;;;;;;5.93;92.52;96765.03;6068262;23;20854;-82
2023/02/04 04:25:21;;;;;;;7.87;2.90;;;;;;;5.90;92.05;96762.69;6068790;23;20176;-82
2023/02/04 04:27:47;;;;;;;6.77;2.83;;;;;;;5.91;91.30;96764.31;6068219;23;20181;-82
2023/02/04 04:30:13;;;;;;;5.13;2.60;;;;;;;5.88;91.03;96775.59;6069023;23;20191;-82
2023/02/04 04:32:40;;;;;;;10.00;2.97;;;;;;;5.87;90.62;96765.47;6067683;23;20212;-82
2023/02/04 04:35:07;;;;;;;5.47;2.40;;;;;;;5.80;89.68;96774.53;6069000;23;20205;-83
2023/02/04 04:37:34;;;;;;;6.97;2.30;;;;;;;5.77;90.03;96780.66;6068469;23;20181;-82
2023/02/04 04:40:01;;;;;;;9.23;2.93;;;;;;;5.80;89.71;96777.88;6067300;23;20814;-82
2023/02/04 04:42:29;;;;;;;7.57;2.40;;;;;;;5.83;89.15;96784.50;6067649;23;20207;-82
2023/02/04 04:44:55;;;;;;;6.00;2.60;;;;;;;5.82;89.25;96788.81;6067896;23;20208;-82
2023/02/04 04:47:22;;;;;;;6.27;2.57;;;;;;;5.81;88.59;96791.47;6067969;23;20243;-82
2023/02/04 04:49:48;;;;;;;7.87;2.63;;;;;;;5.83;87.86;96797.28;6068243;23;20208;-82
2023/02/04 04:52:14;;;;;;;7.37;2.87;;;;;;;5.85;87.78;96800.53;6024318;23;20223;-82
2023/02/04 04:54:41;;;;;;;8.53;2.43;;;;;;;5.81;87.25;96799.97;6063517;23;20216;-82
2023/02/04 04:57:07;;;;;;;11.40;2.80;;;;;;;5.87;86.03;96799.50;6070524;23;20181;-85
2023/02/04 04:59:35;;;;;;;6.40;2.47;;;;;;;5.86;86.11;96799.63;6069836;23;20216;-82
2023/02/04 05:02:01;;;;;;;11.63;3.60;;;;;;;5.80;86.63;96803.44;6070317;23;20690;-82
2023/02/04 05:04:28;;;;;;;9.53;3.17;;;;;;;5.76;86.37;96812.28;6070749;23;20204;-82
2023/02/04 05:06:54;;;;;;;10.60;2.77;;;;;;;5.81;86.41;96817.84;6071196;23;20247;-82
2023/02/04 05:09:20;;;;;;;7.90;2.00;;;;;;;5.79;85.78;96824.81;6070068;23;20533;-82
2023/02/04 05:11:47;;;;;;;6.30;2.23;;;;;;;5.84;85.96;96822.72;6070077;23;20205;-82
2023/02/04 05:14:13;;;;;;;9.87;2.90;;;;;;;5.82;85.14;96816.91;6069795;23;20213;-82
2023/02/04 05:16:41;;;;;;;6.90;2.40;;;;;;;5.82;84.86;96818.66;6069759;23;20242;-82
2023/02/04 05:19:07;;;;;;;5.20;2.40;;;;;;;5.80;84.94;96825.63;6069493;23;20256;-82
2023/02/04 05:21:34;;;;;;;5.90;2.30;;;;;;;5.78;84.58;96817.25;6069972;23;20260;-82
2023/02/04 05:24:00;;;;;;;7.77;2.50;;;;;;;5.76;84.39;96827.63;6069334;23;20215;-82
2023/02/04 05:26:27;;;;;;;7.03;2.67;;;;;;;5.69;84.16;96835.84;6054465;23;20216;-82
2023/02/04 05:28:53;;;;;;;4.87;2.40;;;;;;;5.68;83.75;96834.22;6069386;23;20204;-82
2023/02/04 05:31:19;;;;;;;8.70;2.23;;;;;;;5.71;84.44;96836.56;6070225;23;20691;-82
2023/02/04 05:33:47;;;;;;;7.03;2.27;;;;;;;5.75;84.84;96846.44;6069475;23;20209;-82
2023/02/04 05:36:14;;;;;;;8.60;2.10;;;;;;;5.79;84.13;96845.25;6069407;23;20765;-82
2023/02/04 05:38:40;;;;;;;5.97;2.60;;;;;;;5.82;84.10;96845.03;6068707;23;20271;-82
2023/02/04 05:41:06;;;;;;;9.27;2.50;;;;;;;5.82;83.37;96846.78;6068796;23;20188;-83
2023/02/04 05:43:34;;;;;;;7.23;2.53;;;;;;;5.81;83.58;96848.50;6069483;23;20616;-82
2023/02/04 05:46:00;;;;;;;9.37;2.70;;;;;;;5.79;83.60;96849.56;6069579;23;20183;-83
2023/02/04 05:48:26;;;;;;;6.33;2.70;;;;;;;5.81;84.05;96863.03;6069616;23;20218;-83
2023/02/04 05:50:54;;;;;;;7.57;2.30;;;;;;;5.76;84.04;96860.84;6069790;23;20173;-83
2023/02/04 05:53:21;;;;;;;12.30;3.07;;;;;;;5.72;83.93;96872.22;6069705;23;20208;-82
2023/02/04 05:55:47;;;;;;;4.63;2.47;;;;;;;5.70;83.51;96878.38;6069484;23;20207;-82
2023/02/04 05:58:13;;;;;;;8.73;2.70;;;;;;;5.70;84.42;96883.47;6069218;23;20610;-82
2023/02/04 06:00:40;;;;;;;6.80;2.40;;;;;;;5.76;84.45;96886.41;6069386;23;20181;-82
2023/02/04 06:03:06;;;;;;;11.07;4.50;;;;;;;5.84;84.35;96883.25;6068648;23;20216;-82
2023/02/04 06:05:33;;;;;;;6.87;3.00;;;;;;;5.86;84.62;96895.00;6069698;23;20174;-82
2023/02/04 06:08:00;;;;;;;7.77;2.67;;;;;;;5.85;84.48;96906.16;6069348;23;20177;-83
2023/02/04 06:10:27;;;;;;;9.17;3.37;;;;;;;5.91;84.83;96919.44;6069049;23;20193;-82
2023/02/04 06:12:53;;;;;;;10.43;2.63;;;;;;;5.88;85.06;96917.88;6068792;23;20204;-82
2023/02/04 06:15:20;;;;;;;9.23;3.30;;;;;;;5.85;85.57;96913.81;6068462;23;20200;-82
2023/02/04 06:17:46;;;;;;;6.57;2.63;;;;;;;5.80;86.14;96920.19;6067626;23;20185;-82
2023/02/04 06:20:14;;;;;;;9.30;2.63;;;;;;;5.84;86.30;96927.50;6068274;23;20193;-83
2023/02/04 06:22:41;;;;;;;5.83;2.53;;;;;;;5.83;85.85;96927.63;6066861;23;20208;-82
2023/02/04 06:25:09;;;;;;;7.33;2.63;;;;;;;5.89;85.97;96933.13;6067617;23;20173;-82
2023/02/04 06:27:35;;;;;;;7.60;2.90;;;;;;;5.89;86.07;96935.69;6068271;23;20680;-82
2023/02/04 06:30:02;;;;;;;12.40;3.03;;;;;;;5.91;85.86;96934.78;6066805;23;20209;-82
2023/02/04 06:32:28;;;;;;;7.27;2.53;;;;;;;5.98;85.76;96938.47;6064194;23;20271;-82
2023/02/04 06:34:54;;;;;;;6.50;2.43;;;;;;;6.01;85.08;96938.25;6065723;23;20216;-82
2023/02/04 06:37:21;;;;;;;7.53;3.37;;;;;;;5.99;85.65;96945.22;6067630;23;20513;-82
2023/02/04 06:39:47;;;;;;;10.03;2.83;;;;;;;5.95;85.02;96947.22;6066696;23;20212;-82
2023/02/04 06:42:15;;;;;;;7.53;2.87;;;;;;;5.95;84.45;96944.66;6067470;23;20201;-83
2023/02/04 06:44:41;;;;;;;5.87;2.70;;;;;;;5.95;85.08;96939.53;6067515;23;20299;-82
2023/02/04 06:47:08;;;;;;;5.40;2.80;;;;;;;5.96;84.99;96951.41;6068386;23;20187;-81
2023/02/04 06:49:34;;;;;;;10.77;3.53;;;;;;;5.89;84.42;96945.09;6068049;23;20209;-83
2023/02/04 06:52:01;;;;;;;10.10;3.07;;;;;;;5.89;84.31;96953.59;6070435;23;20205;-82
2023/02/04 06:54:27;;;;;;;7.07;2.80;;;;;;;5.88;83.63;96949.41;6070295;23;20566;-84
2023/02/04 06:56:53;;;;;;;9.53;3.10;;;;;;;5.95;83.54;96949.78;6069668;23;20201;-83
2023/02/04 06:59:22;;;;;;;8.33;2.77;;;;;;;6.00;83.37;96959.63;6070071;23;20272;-83
2023/02/04 07:01:48;;;;;;;8.57;3.00;;;;;;;5.93;83.05;96949.06;6070155;23;20204;-83
2023/02/04 07:04:15;;;;;;;6.40;3.17;;;;;;;5.96;83.03;96958.25;6068852;23;20272;-82
2023/02/04 07:06:41;;;;;;;8.07;2.50;;;;;;;5.96;82.93;96966.75;6068799;23;20215;-83
2023/02/04 07:09:09;;;;;;;10.07;3.80;;;;;;;5.92;84.43;96967.06;6069758;23;20205;-86
2023/02/04 07:11:35;;;;;;;6.53;2.73;;;;;;;5.94;82.99;96970.34;6070513;23;20197;-86
2023/02/04 07:14:02;;;;;;;7.43;2.80;;;;;;;5.93;82.56;96973.81;6069572;23;20548;-86
2023/02/04 07:16:30;;;;;;;7.50;2.57;;;;;;;5.95;82.91;96977.88;6068988;23;20200;-86
2023/02/04 07:18:57;;;;;;;6.23;2.67;;;;;;;5.93;82.45;96982.31;6072199;23;20574;-86
2023/02/04 07:21:26;;;;;;;5.13;2.47;;;;;;;5.97;82.36;96985.41;6072709;23;20193;-86
2023/02/04 07:23:53;;;;;;;4.33;2.33;;;;;;;6.05;81.50;96985.69;6071731;23;20280;-86
2023/02/04 07:26:20;;;;;;;10.40;2.83;;;;;;;6.04;80.21;96991.72;6071107;23;20177;-84
2023/02/04 07:28:46;;;;;;;4.27;2.30;;;;;;;6.06;79.51;96990.69;6071066;23;20197;-85
2023/02/04 07:31:13;;;;;;;5.57;2.50;;;;;;;6.08;79.42;96999.06;6071369;23;20177;-85
2023/02/04 07:33:41;;;;;;;5.07;2.77;;;;;;;6.10;78.95;97006.63;6071692;23;20216;-85
2023/02/04 07:36:07;;;;;;;5.20;2.40;;;;;;;6.09;78.69;97008.34;6070950;23;20204;-85
2023/02/04 07:38:34;;;;;;;6.57;2.70;;;;;;;6.04;79.04;97012.16;6070368;23;20211;-85
2023/02/04 07:41:00;;;;;;;6.93;2.50;;;;;;;5.95;78.37;97012.88;6070524;23;20184;-85
2023/02/04 07:43:27;;;;;;;5.10;2.20;;;;;;;6.03;78.93;97019.03;6070255;23;20212;-85
2023/02/04 07:45:56;;;;;;;5.40;2.80;;;;;;;6.07;78.83;97027.28;6070382;23;20169;-85
2023/02/04 07:48:22;;;;;;;4.93;2.70;;;;;;;6.12;78.05;97032.88;6068853;23;20215;-85
2023/02/04 07:50:50;;;;;;;8.83;2.73;;;;;;;6.14;78.28;97034.41;6069837;23;20510;-85
2023/02/04 07:53:17;;;;;;;6.03;2.30;;;;;;;6.04;77.86;97036.00;6069459;23;20217;-85
2023/02/04 07:55:43;;;;;;;4.77;2.50;;;;;;;6.03;78.05;97028.44;6070844;23;20205;-85
2023/02/04 07:58:09;;;;;;;11.33;2.77;;;;;;;6.00;77.38;97042.25;6069701;23;20283;-85
2023/02/04 08:00:36;;;;;;;8.30;2.47;;;;;;;5.97;77.50;97037.38;6069249;23;20244;-85
2023/02/04 08:03:02;;;;;;;5.07;2.30;;;;;;;6.01;77.31;97033.66;6068280;23;20236;-85
2023/02/04 08:05:29;;;;;;;7.10;2.20;;;;;;;6.08;76.97;97039.16;6069854;23;20177;-85
2023/02/04 08:07:57;;;;;;;10.00;2.40;;;;;;;6.13;76.76;97037.06;6070756;23;20192;-85
2023/02/04 08:10:24;;;;;;;5.40;2.40;;;;;;;6.12;77.20;97041.38;6069853;23;20259;-85
2023/02/04 08:12:50;;;;;;;7.77;2.40;;;;;;;6.12;76.98;97038.81;6070837;23;20577;-85
2023/02/04 08:15:16;;;;;;;8.90;2.60;;;;;;;6.17;76.90;97044.38;6071386;23;20188;-85
2023/02/04 08:17:43;;;;;;;5.03;2.30;;;;;;;6.20;76.04;97040.78;6070092;23;20604;-85
2023/02/04 08:20:11;;;;;;;7.50;2.60;;;;;;;6.22;75.70;97052.53;6071882;23;20181;-85
2023/02/04 08:22:37;;;;;;;9.83;2.87;;;;;;;6.24;76.43;97048.13;6070080;23;20205;-85
2023/02/04 08:25:06;;;;;;;5.50;2.50;;;;;;;6.26;75.96;97054.88;6070185;23;20235;-85
2023/02/04 08:27:32;;;;;;;7.87;2.67;;;;;;;6.21;75.95;97057.75;6071224;23;20184;-85
2023/02/04 08:29:59;;;;;;;12.27;2.57;;;;;;;6.32;76.16;97062.91;6069901;23;20204;-85
2023/02/04 08:32:26;;;;;;;7.67;2.70;;;;;;;6.31;76.09;97061.28;6070370;23;20200;-85
2023/02/04 08:34:52;;;;;;;10.40;2.93;;;;;;;6.27;75.99;97061.63;6070240;23;20280;-85
2023/02/04 08:37:19;;;;;;;5.27;2.10;;;;;;;6.33;76.04;97072.22;6070316;23;20718;-85
2023/02/04 08:39:46;;;;;;;7.60;2.43;;;;;;;6.31;75.83;97076.63;6070767;23;20219;-85
2023/02/04 08:42:14;;;;;;;7.80;3.10;;;;;;;6.36;75.32;97077.09;6070859;23;20201;-85
2023/02/04 08:44:41;;;;;;;4.93;2.27;;;;;;;6.41;74.90;97082.69;6071525;23;20213;-85
2023/02/04 08:47:07;;;;;;;7.23;2.97;;;;;;;6.36;75.02;97081.38;6070922;23;20207;-85
2023/02/04 08:49:35;;;;;;;8.73;2.57;;;;;;;6.44;75.50;97087.59;6070992;23;20260;-85
2023/02/04 08:52:03;;;;;;;7.97;2.80;;;;;;;6.44;76.01;97089.31;6070303;23;20220;-85
2023/02/04 08:54:32;;;;;;;8.47;2.43;;;;;;;6.55;75.07;97082.47;6069566;23;20215;-85
2023/02/04 08:56:59;;;;;;;5.30;2.20;;;;;;;7.06;74.68;97089.72;6055203;23;20213;-85
2023/02/04 08:59:28;;;;;;;8.93;2.37;;;;;;;7.78;72.61;97084.88;6070745;23;20267;-85
2023/02/04 09:01:54;;;;;;;6.57;2.50;;;;;;;8.24;71.51;97082.00;6054881;23;20589;-85
2023/02/04 09:04:22;;;;;;;13.50;6.93;;;;;;;8.09;67.87;97084.97;6070387;23;20212;-85
2023/02/04 09:06:49;;;;;;;11.07;7.37;;;;;;;7.70;72.54;97097.50;6070901;23;20184;-85
2023/02/04 09:09:16;;;;;;;6.57;3.10;;;;;;;7.65;71.71;97098.81;6070162;23;20216;-85
2023/02/04 09:11:48;;;;;;;7.23;2.70;;;;;;;7.51;69.79;97112.69;6054427;23;20217;-85
2023/02/04 09:14:15;;;;;;;7.63;2.40;;;;;;;7.44;70.32;97109.81;6069213;23;20236;-86
2023/02/04 09:16:42;;;;;;;5.07;2.50;;;;;;;7.39;70.84;97108.53;6071269;23;20633;-85
2023/02/04 09:19:11;;;;;;;4.97;2.27;;;;;;;7.39;71.37;97118.78;6070188;23;20209;-85
2023/02/04 09:21:38;;;;;;;9.00;2.57;;;;;;;7.32;71.16;97121.00;6069847;23;20205;-85
2023/02/04 09:24:04;;;;;;;6.20;2.90;;;;;;;7.32;70.74;97117.63;6069881;23;20212;-85
2023/02/04 09:26:31;;;;;;;5.90;2.10;;;;;;;7.31;71.50;97123.69;6070680;23;20184;-85
2023/02/04 09:28:57;;;;;;;7.83;2.37;;;;;;;7.18;72.35;97119.50;6068442;23;20212;-85
2023/02/04 09:31:23;;;;;;;6.90;2.27;;;;;;;7.19;72.05;97112.63;6069208;23;20228;-86
2023/02/04 09:33:51;;;;;;;5.43;2.57;;;;;;;7.11;71.16;97122.66;6069116;23;20205;-83
2023/02/04 09:36:17;;;;;;;6.93;2.57;;;;;;;7.14;71.60;97125.78;6069496;23;20692;-83
2023/02/04 09:38:44;;;;;;;8.47;2.50;;;;;;;7.14;71.51;97125.78;6068806;23;20208;-83
2023/02/04 09:41:12;;;;;;;6.50;2.00;;;;;;;7.19;71.65;97133.13;6036986;23;20208;-83
2023/02/04 09:43:41;;;;;;;6.87;2.80;;;;;;;7.21;70.80;97134.63;6067754;23;20703;-85
2023/02/04 09:46:15;;;;;;;6.80;2.50;;;;;;;7.25;71.13;97137.78;6040550;23;20228;-85
2023/02/04 09:48:42;;;;;;;12.73;5.00;;;;;;;7.23;70.94;97137.91;6069354;23;20207;-85
2023/02/04 09:51:18;;;;;;;30.30;20.43;;;;;;;7.08;71.12;97149.31;6069707;23;20184;-85
2023/02/04 09:53:45;;;;;;;5.63;2.53;;;;;;;7.13;79.15;97142.06;6068924;23;20212;-80
2023/02/04 09:56:13;;;;;;;6.93;2.17;;;;;;;7.46;90.03;97154.06;6070135;23;20204;-82
2023/02/04 09:58:41;;;;;;;9.57;2.87;;;;;;;8.01;91.54;97156.63;6069087;23;20223;-81
2023/02/04 10:01:13;;;;;;;7.90;2.83;;;;;;;8.42;83.69;97148.22;6071286;23;20185;-82
2023/02/04 10:03:45;;;;;;;6.97;3.53;;;;;;;8.47;78.60;97146.06;6069919;23;20215;-82
2023/02/04 10:06:13;;;;;;;7.40;2.63;;;;;;;8.59;74.92;97139.94;6069831;23;20165;-81
2023/02/04 10:08:40;;;;;;;8.03;3.17;;;;;;;8.74;73.33;97150.69;6067676;23;20252;-81
2023/02/04 10:11:08;;;;;;;6.97;2.40;;;;;;;8.69;69.01;97157.97;6068509;23;20191;-83
2023/02/04 10:13:40;;;;;;;6.40;2.03;;;;;;;8.50;65.57;97158.66;6073281;23;20684;-83
2023/02/04 10:16:13;;;;;;;6.00;2.00;;;;;;;8.33;67.02;97157.44;6057032;23;20272;-83
2023/02/04 10:18:40;;;;;;;7.47;2.30;;;;;;;8.16;66.88;97153.66;6071643;23;20213;-83
2023/02/04 10:21:16;;;;;;;7.13;2.43;;;;;;;8.00;67.92;97163.50;6072419;23;20180;-83
2023/02/04 10:23:46;;;;;;;8.13;2.50;;;;;;;7.89;68.30;97171.22;6070756;23;20263;-83
2023/02/04 10:26:13;;;;;;;5.93;2.83;;;;;;;7.73;69.27;97169.03;6072761;23;20184;-83
2023/02/04 10:28:40;;;;;;;6.23;2.27;;;;;;;7.58;69.43;97160.81;6071648;23;20216;-82
2023/02/04 10:31:08;;;;;;;7.00;2.60;;;;;;;7.50;70.05;97167.47;6070978;23;20189;-83
2023/02/04 10:33:36;;;;;;;6.57;2.20;;;;;;;7.25;69.77;97164.22;6071142;23;20200;-83
2023/02/04 10:36:05;;;;;;;6.87;2.60;;;;;;;7.15;71.13;97165.00;6072472;23;20192;-83
2023/02/04 10:38:32;;;;;;;6.43;2.70;;;;;;;7.19;71.81;97168.97;6070350;23;20230;-83
2023/02/04 10:41:02;;;;;;;4.40;2.00;;;;;;;7.24;72.34;97164.34;6070736;23;20238;-82
2023/02/04 10:43:29;;;;;;;3.47;2.00;;;;;;;7.31;72.68;97159.56;6070385;23;20776;-83
2023/02/04 10:45:57;;;;;;;12.30;7.07;;;;;;;7.34;72.85;97165.25;6070833;23;20195;-84
2023/02/04 10:48:25;;;;;;;18.47;12.33;;;;;;;7.43;72.29;97166.31;6069532;23;20209;-83
2023/02/04 10:50:52;;;;;;;15.43;10.37;;;;;;;7.53;72.25;97167.22;6067396;23;20572;-83
2023/02/04 10:56:14;;;;;;;3.57;2.33;;;;;;;7.44;70.66;97157.69;6068912;23;20164;-83
2023/02/04 10:58:41;;;;;;;4.83;1.70;;;;;;;7.26;71.18;97155.59;6068766;23;20206;-83
2023/02/04 11:01:09;;;;;;;7.17;2.00;;;;;;;7.27;71.97;97164.91;6052613;23;20670;-83
2023/02/04 11:03:38;;;;;;;6.90;2.00;;;;;;;7.34;72.17;97157.56;6068306;23;20204;-83
2023/02/04 11:06:10;;;;;;;4.17;2.10;;;;;;;7.33;72.60;97166.19;6066877;23;20200;-82
2023/02/04 11:08:37;;;;;;;5.43;1.93;;;;;;;7.40;72.20;97167.34;6069747;23;20225;-83
2023/02/04 11:11:08;;;;;;;14.87;9.93;;;;;;;7.57;72.19;97171.16;6069014;23;20181;-83
2023/02/04 11:13:42;;;;;;;22.87;15.57;;;;;;;7.59;71.81;97169.31;6069860;23;20200;-83
2023/02/04 11:16:24;;;;;;;9.23;4.60;;;;;;;7.58;70.63;97170.22;6069305;23;20176;-82
2023/02/04 11:18:52;;;;;;;3.83;1.70;;;;;;;7.51;69.20;97161.38;6069037;23;20455;-83
2023/02/04 11:21:25;;;;;;;2.50;1.40;;;;;;;7.47;69.07;97165.94;6053009;23;20216;-83
2023/02/04 11:24:04;;;;;;;2.43;1.50;;;;;;;7.48;68.99;97159.09;6068872;23;20212;-83
2023/02/04 11:26:34;;;;;;;1.63;1.30;;;;;;;7.48;68.12;97152.22;6069674;23;20654;-83
2023/02/04 11:29:25;;;;;;;2.30;1.00;;;;;;;7.46;68.08;97154.06;6069026;23;20307;-83
2023/02/04 11:32:03;;;;;;;2.73;1.30;;;;;;;7.59;68.36;97156.50;6069371;23;20200;-82
2023/02/04 11:34:46;;;;;;;2.60;1.20;;;;;;;7.58;67.75;97150.53;6069630;23;20209;-85
2023/02/04 11:37:17;;;;;;;3.63;1.60;;;;;;;7.83;67.39;97151.19;6065016;23;20224;-83
2023/02/04 11:39:45;;;;;;;2.17;1.77;;;;;;;7.97;67.94;97159.44;6068728;23;20213;-83
2023/02/04 11:42:20;;;;;;;10.17;6.90;;;;;;;8.09;67.25;97167.88;6009336;23;20209;-83
2023/02/04 11:44:55;;;;;;;14.80;9.47;;;;;;;8.22;66.06;97168.56;6067591;23;20232;-83